sensor_id;sensor_type;location;lat;lon;timestamp;P1;durP1;ratioP1;P2;durP2;ratioP2
44130;SDS011;29792;48.726;9.248;2023-03-01T00:00:10;16.15;;;11.07;;
44130;SDS011;29792;48.726;9.248;2023-03-01T00:02:35;13.25;;;9.70;;
44130;SDS011;29792;48.726;9.248;2023-03-01T00:05:01;13.45;;;9.82;;
44130;SDS011;29792;48.726;9.248;2023-03-01T00:07:26;18.75;;;12.13;;
44130;SDS011;29792;48.726;9.248;2023-03-01T00:09:52;17.85;;;10.85;;
44130;SDS011;29792;48.726;9.248;2023-03-01T00:12:17;17.63;;;11.77;;
44130;SDS011;29792;48.726;9.248;2023-03-01T00:14:42;17.27;;;11.63;;
44130;SDS011;29792;48.726;9.248;2023-03-01T00:17:07;20.85;;;11.57;;
44130;SDS011;29792;48.726;9.248;2023-03-01T00:19:33;18.95;;;11.80;;
44130;SDS011;29792;48.726;9.248;2023-03-01T00:21:58;18.95;;;12.43;;
44130;SDS011;29792;48.726;9.248;2023-03-01T00:24:23;15.55;;;11.82;;
44130;SDS011;29792;48.726;9.248;2023-03-01T00:26:52;13.65;;;10.02;;
44130;SDS011;29792;48.726;9.248;2023-03-01T00:29:20;16.55;;;11.05;;
44130;SDS011;29792;48.726;9.248;2023-03-01T00:31:45;19.27;;;12.88;;
44130;SDS011;29792;48.726;9.248;2023-03-01T00:34:10;16.27;;;11.32;;
44130;SDS011;29792;48.726;9.248;2023-03-01T00:36:36;17.27;;;12.15;;
44130;SDS011;29792;48.726;9.248;2023-03-01T00:39:03;18.38;;;11.45;;
44130;SDS011;29792;48.726;9.248;2023-03-01T00:41:30;15.75;;;10.75;;
44130;SDS011;29792;48.726;9.248;2023-03-01T00:43:55;18.63;;;12.32;;
44130;SDS011;29792;48.726;9.248;2023-03-01T00:46:22;18.00;;;11.68;;
44130;SDS011;29792;48.726;9.248;2023-03-01T00:48:49;15.50;;;11.55;;
44130;SDS011;29792;48.726;9.248;2023-03-01T00:51:16;17.75;;;11.15;;
44130;SDS011;29792;48.726;9.248;2023-03-01T00:53:43;15.75;;;11.07;;
44130;SDS011;29792;48.726;9.248;2023-03-01T00:56:10;19.42;;;12.05;;
44130;SDS011;29792;48.726;9.248;2023-03-01T00:58:37;17.70;;;11.13;;
44130;SDS011;29792;48.726;9.248;2023-03-01T01:01:09;16.40;;;11.27;;
44130;SDS011;29792;48.726;9.248;2023-03-01T01:03:41;22.42;;;13.13;;
44130;SDS011;29792;48.726;9.248;2023-03-01T01:06:17;18.42;;;13.43;;
44130;SDS011;29792;48.726;9.248;2023-03-01T01:08:45;19.63;;;12.50;;
44130;SDS011;29792;48.726;9.248;2023-03-01T01:11:11;23.08;;;13.70;;
44130;SDS011;29792;48.726;9.248;2023-03-01T01:13:38;18.30;;;13.07;;
44130;SDS011;29792;48.726;9.248;2023-03-01T01:16:04;19.50;;;12.93;;
44130;SDS011;29792;48.726;9.248;2023-03-01T01:18:30;21.85;;;14.43;;
44130;SDS011;29792;48.726;9.248;2023-03-01T01:20:55;20.65;;;14.02;;
44130;SDS011;29792;48.726;9.248;2023-03-01T01:23:20;22.88;;;12.68;;
44130;SDS011;29792;48.726;9.248;2023-03-01T01:25:46;18.88;;;12.55;;
44130;SDS011;29792;48.726;9.248;2023-03-01T01:28:11;21.35;;;13.32;;
44130;SDS011;29792;48.726;9.248;2023-03-01T01:30:36;21.67;;;13.40;;
44130;SDS011;29792;48.726;9.248;2023-03-01T01:33:02;19.75;;;13.80;;
44130;SDS011;29792;48.726;9.248;2023-03-01T01:35:27;17.02;;;11.75;;
44130;SDS011;29792;48.726;9.248;2023-03-01T01:37:52;20.75;;;11.07;;
44130;SDS011;29792;48.726;9.248;2023-03-01T01:40:18;18.33;;;12.88;;
44130;SDS011;29792;48.726;9.248;2023-03-01T01:42:43;17.52;;;11.73;;
44130;SDS011;29792;48.726;9.248;2023-03-01T01:45:24;21.33;;;13.85;;
44130;SDS011;29792;48.726;9.248;2023-03-01T01:47:54;20.00;;;13.40;;
44130;SDS011;29792;48.726;9.248;2023-03-01T01:50:22;25.60;;;13.90;;
44130;SDS011;29792;48.726;9.248;2023-03-01T01:52:48;17.05;;;13.05;;
44130;SDS011;29792;48.726;9.248;2023-03-01T01:55:18;19.55;;;13.43;;
44130;SDS011;29792;48.726;9.248;2023-03-01T01:57:48;21.90;;;12.63;;
44130;SDS011;29792;48.726;9.248;2023-03-01T02:00:17;19.00;;;13.02;;
44130;SDS011;29792;48.726;9.248;2023-03-01T02:02:45;18.27;;;12.57;;
44130;SDS011;29792;48.726;9.248;2023-03-01T02:05:33;19.13;;;12.05;;
44130;SDS011;29792;48.726;9.248;2023-03-01T02:08:03;20.65;;;14.30;;
44130;SDS011;29792;48.726;9.248;2023-03-01T02:10:28;19.85;;;14.13;;
44130;SDS011;29792;48.726;9.248;2023-03-01T02:12:58;20.38;;;13.32;;
44130;SDS011;29792;48.726;9.248;2023-03-01T02:15:24;24.10;;;15.50;;
44130;SDS011;29792;48.726;9.248;2023-03-01T02:17:51;21.67;;;13.02;;
44130;SDS011;29792;48.726;9.248;2023-03-01T02:22:58;20.15;;;13.80;;
44130;SDS011;29792;48.726;9.248;2023-03-01T02:30:38;20.98;;;12.98;;
44130;SDS011;29792;48.726;9.248;2023-03-01T02:33:24;20.73;;;12.68;;
44130;SDS011;29792;48.726;9.248;2023-03-01T02:35:51;19.92;;;13.52;;
44130;SDS011;29792;48.726;9.248;2023-03-01T02:38:18;20.77;;;13.60;;
44130;SDS011;29792;48.726;9.248;2023-03-01T02:40:44;19.65;;;13.23;;
44130;SDS011;29792;48.726;9.248;2023-03-01T02:43:10;20.42;;;14.15;;
44130;SDS011;29792;48.726;9.248;2023-03-01T02:45:37;48.03;;;15.63;;
44130;SDS011;29792;48.726;9.248;2023-03-01T02:48:02;24.40;;;13.73;;
44130;SDS011;29792;48.726;9.248;2023-03-01T02:55:53;21.13;;;13.48;;
44130;SDS011;29792;48.726;9.248;2023-03-01T02:58:18;21.15;;;14.02;;
44130;SDS011;29792;48.726;9.248;2023-03-01T03:00:44;19.55;;;14.23;;
44130;SDS011;29792;48.726;9.248;2023-03-01T03:03:15;20.77;;;12.88;;
44130;SDS011;29792;48.726;9.248;2023-03-01T03:05:42;20.95;;;15.43;;
44130;SDS011;29792;48.726;9.248;2023-03-01T03:08:08;21.83;;;16.23;;
44130;SDS011;29792;48.726;9.248;2023-03-01T03:10:35;20.80;;;13.18;;
44130;SDS011;29792;48.726;9.248;2023-03-01T03:13:05;20.77;;;15.13;;
44130;SDS011;29792;48.726;9.248;2023-03-01T03:15:33;22.67;;;14.50;;
44130;SDS011;29792;48.726;9.248;2023-03-01T03:18:04;17.95;;;13.13;;
44130;SDS011;29792;48.726;9.248;2023-03-01T03:20:31;21.85;;;14.52;;
44130;SDS011;29792;48.726;9.248;2023-03-01T03:22:57;21.75;;;13.40;;
44130;SDS011;29792;48.726;9.248;2023-03-01T03:25:23;22.33;;;14.00;;
44130;SDS011;29792;48.726;9.248;2023-03-01T03:27:50;22.08;;;13.82;;
44130;SDS011;29792;48.726;9.248;2023-03-01T03:30:21;20.55;;;13.55;;
44130;SDS011;29792;48.726;9.248;2023-03-01T03:32:48;21.25;;;13.82;;
44130;SDS011;29792;48.726;9.248;2023-03-01T03:35:20;25.05;;;15.70;;
44130;SDS011;29792;48.726;9.248;2023-03-01T03:37:51;20.02;;;14.48;;
44130;SDS011;29792;48.726;9.248;2023-03-01T03:40:26;26.23;;;15.82;;
44130;SDS011;29792;48.726;9.248;2023-03-01T03:42:53;20.45;;;13.48;;
44130;SDS011;29792;48.726;9.248;2023-03-01T03:45:19;22.30;;;14.07;;
44130;SDS011;29792;48.726;9.248;2023-03-01T03:47:44;19.75;;;14.07;;
44130;SDS011;29792;48.726;9.248;2023-03-01T03:50:10;23.55;;;14.20;;
44130;SDS011;29792;48.726;9.248;2023-03-01T03:52:37;19.67;;;14.45;;
44130;SDS011;29792;48.726;9.248;2023-03-01T03:55:03;22.75;;;14.95;;
44130;SDS011;29792;48.726;9.248;2023-03-01T03:57:34;30.48;;;16.88;;
44130;SDS011;29792;48.726;9.248;2023-03-01T03:59:59;21.90;;;14.30;;
44130;SDS011;29792;48.726;9.248;2023-03-01T04:02:24;19.75;;;13.68;;
44130;SDS011;29792;48.726;9.248;2023-03-01T04:04:50;23.08;;;14.52;;
44130;SDS011;29792;48.726;9.248;2023-03-01T04:07:18;25.65;;;14.27;;
44130;SDS011;29792;48.726;9.248;2023-03-01T04:09:43;22.50;;;15.00;;
44130;SDS011;29792;48.726;9.248;2023-03-01T04:12:09;23.00;;;14.38;;
44130;SDS011;29792;48.726;9.248;2023-03-01T04:14:34;21.80;;;13.88;;
44130;SDS011;29792;48.726;9.248;2023-03-01T04:17:00;22.85;;;15.13;;
44130;SDS011;29792;48.726;9.248;2023-03-01T04:19:25;25.02;;;15.32;;
44130;SDS011;29792;48.726;9.248;2023-03-01T04:21:51;17.60;;;13.43;;
44130;SDS011;29792;48.726;9.248;2023-03-01T04:24:17;21.98;;;13.63;;
44130;SDS011;29792;48.726;9.248;2023-03-01T04:26:42;19.95;;;14.63;;
44130;SDS011;29792;48.726;9.248;2023-03-01T04:29:08;28.67;;;15.35;;
44130;SDS011;29792;48.726;9.248;2023-03-01T04:31:33;22.20;;;14.23;;
44130;SDS011;29792;48.726;9.248;2023-03-01T04:33:59;26.30;;;14.15;;
44130;SDS011;29792;48.726;9.248;2023-03-01T04:36:26;24.50;;;15.88;;
44130;SDS011;29792;48.726;9.248;2023-03-01T04:38:52;23.30;;;14.95;;
44130;SDS011;29792;48.726;9.248;2023-03-01T04:41:18;20.27;;;14.38;;
44130;SDS011;29792;48.726;9.248;2023-03-01T04:43:45;32.60;;;18.08;;
44130;SDS011;29792;48.726;9.248;2023-03-01T04:46:12;27.77;;;17.23;;
44130;SDS011;29792;48.726;9.248;2023-03-01T04:48:40;28.95;;;16.65;;
44130;SDS011;29792;48.726;9.248;2023-03-01T04:51:06;22.95;;;15.98;;
44130;SDS011;29792;48.726;9.248;2023-03-01T04:53:32;24.38;;;15.93;;
44130;SDS011;29792;48.726;9.248;2023-03-01T04:55:58;23.05;;;15.32;;
44130;SDS011;29792;48.726;9.248;2023-03-01T04:58:25;23.10;;;15.98;;
44130;SDS011;29792;48.726;9.248;2023-03-01T05:00:52;24.30;;;15.55;;
44130;SDS011;29792;48.726;9.248;2023-03-01T05:03:18;24.58;;;15.32;;
44130;SDS011;29792;48.726;9.248;2023-03-01T05:05:45;22.55;;;14.00;;
44130;SDS011;29792;48.726;9.248;2023-03-01T05:08:12;26.05;;;15.15;;
44130;SDS011;29792;48.726;9.248;2023-03-01T05:10:42;21.58;;;16.02;;
44130;SDS011;29792;48.726;9.248;2023-03-01T05:13:09;27.10;;;15.57;;
44130;SDS011;29792;48.726;9.248;2023-03-01T05:15:34;29.70;;;16.98;;
44130;SDS011;29792;48.726;9.248;2023-03-01T05:18:01;27.17;;;16.27;;
44130;SDS011;29792;48.726;9.248;2023-03-01T05:20:29;23.75;;;14.90;;
44130;SDS011;29792;48.726;9.248;2023-03-01T05:22:59;23.70;;;16.63;;
44130;SDS011;29792;48.726;9.248;2023-03-01T05:25:25;23.38;;;15.23;;
44130;SDS011;29792;48.726;9.248;2023-03-01T05:27:50;27.05;;;17.65;;
44130;SDS011;29792;48.726;9.248;2023-03-01T05:30:16;22.65;;;13.90;;
44130;SDS011;29792;48.726;9.248;2023-03-01T05:32:43;23.10;;;15.73;;
44130;SDS011;29792;48.726;9.248;2023-03-01T05:35:10;22.77;;;15.20;;
44130;SDS011;29792;48.726;9.248;2023-03-01T05:37:38;25.90;;;17.60;;
44130;SDS011;29792;48.726;9.248;2023-03-01T05:40:04;25.02;;;15.45;;
44130;SDS011;29792;48.726;9.248;2023-03-01T05:42:33;22.63;;;15.75;;
44130;SDS011;29792;48.726;9.248;2023-03-01T05:44:58;22.23;;;15.18;;
44130;SDS011;29792;48.726;9.248;2023-03-01T05:47:23;21.85;;;15.05;;
44130;SDS011;29792;48.726;9.248;2023-03-01T05:49:49;25.45;;;15.10;;
44130;SDS011;29792;48.726;9.248;2023-03-01T05:52:15;25.02;;;17.90;;
44130;SDS011;29792;48.726;9.248;2023-03-01T05:54:40;24.33;;;16.05;;
44130;SDS011;29792;48.726;9.248;2023-03-01T05:57:05;22.35;;;14.27;;
44130;SDS011;29792;48.726;9.248;2023-03-01T05:59:30;24.70;;;15.25;;
44130;SDS011;29792;48.726;9.248;2023-03-01T06:01:56;19.77;;;13.98;;
44130;SDS011;29792;48.726;9.248;2023-03-01T06:04:21;22.38;;;14.30;;
44130;SDS011;29792;48.726;9.248;2023-03-01T06:06:46;26.33;;;15.70;;
44130;SDS011;29792;48.726;9.248;2023-03-01T06:09:11;21.33;;;13.60;;
44130;SDS011;29792;48.726;9.248;2023-03-01T06:11:37;21.33;;;13.13;;
44130;SDS011;29792;48.726;9.248;2023-03-01T06:14:02;25.75;;;16.00;;
44130;SDS011;29792;48.726;9.248;2023-03-01T06:16:28;21.52;;;14.32;;
44130;SDS011;29792;48.726;9.248;2023-03-01T06:18:54;26.63;;;15.70;;
44130;SDS011;29792;48.726;9.248;2023-03-01T06:21:19;23.50;;;14.95;;
44130;SDS011;29792;48.726;9.248;2023-03-01T06:23:44;21.67;;;14.32;;
44130;SDS011;29792;48.726;9.248;2023-03-01T06:26:09;20.33;;;14.18;;
44130;SDS011;29792;48.726;9.248;2023-03-01T06:28:35;23.20;;;15.55;;
44130;SDS011;29792;48.726;9.248;2023-03-01T06:31:00;22.35;;;14.18;;
44130;SDS011;29792;48.726;9.248;2023-03-01T06:33:26;23.98;;;15.40;;
44130;SDS011;29792;48.726;9.248;2023-03-01T06:35:54;26.90;;;17.33;;
44130;SDS011;29792;48.726;9.248;2023-03-01T06:38:21;27.08;;;15.30;;
44130;SDS011;29792;48.726;9.248;2023-03-01T06:40:51;23.77;;;16.48;;
44130;SDS011;29792;48.726;9.248;2023-03-01T06:43:17;22.35;;;15.18;;
44130;SDS011;29792;48.726;9.248;2023-03-01T06:45:43;19.10;;;14.23;;
44130;SDS011;29792;48.726;9.248;2023-03-01T06:48:08;25.05;;;17.05;;
44130;SDS011;29792;48.726;9.248;2023-03-01T06:50:34;23.33;;;15.48;;
44130;SDS011;29792;48.726;9.248;2023-03-01T06:53:00;24.40;;;17.08;;
44130;SDS011;29792;48.726;9.248;2023-03-01T06:55:25;25.17;;;16.75;;
44130;SDS011;29792;48.726;9.248;2023-03-01T06:57:57;27.35;;;17.30;;
44130;SDS011;29792;48.726;9.248;2023-03-01T07:00:24;23.38;;;14.98;;
44130;SDS011;29792;48.726;9.248;2023-03-01T07:02:50;23.50;;;13.45;;
44130;SDS011;29792;48.726;9.248;2023-03-01T07:05:15;27.02;;;18.50;;
44130;SDS011;29792;48.726;9.248;2023-03-01T07:07:41;24.83;;;16.98;;
44130;SDS011;29792;48.726;9.248;2023-03-01T07:10:06;27.40;;;18.25;;
44130;SDS011;29792;48.726;9.248;2023-03-01T07:12:32;25.10;;;16.83;;
44130;SDS011;29792;48.726;9.248;2023-03-01T07:14:57;24.25;;;16.15;;
44130;SDS011;29792;48.726;9.248;2023-03-01T07:17:23;25.17;;;14.90;;
44130;SDS011;29792;48.726;9.248;2023-03-01T07:19:48;25.20;;;15.75;;
44130;SDS011;29792;48.726;9.248;2023-03-01T07:22:13;24.02;;;16.27;;
44130;SDS011;29792;48.726;9.248;2023-03-01T07:24:39;24.27;;;15.70;;
44130;SDS011;29792;48.726;9.248;2023-03-01T07:27:06;21.70;;;16.08;;
44130;SDS011;29792;48.726;9.248;2023-03-01T07:29:31;22.63;;;15.40;;
44130;SDS011;29792;48.726;9.248;2023-03-01T07:31:56;26.10;;;15.32;;
44130;SDS011;29792;48.726;9.248;2023-03-01T07:34:22;19.27;;;15.00;;
44130;SDS011;29792;48.726;9.248;2023-03-01T07:36:47;23.90;;;15.65;;
44130;SDS011;29792;48.726;9.248;2023-03-01T07:39:12;23.60;;;15.20;;
44130;SDS011;29792;48.726;9.248;2023-03-01T07:41:38;22.25;;;15.32;;
44130;SDS011;29792;48.726;9.248;2023-03-01T07:44:03;19.95;;;14.60;;
44130;SDS011;29792;48.726;9.248;2023-03-01T07:46:29;21.55;;;14.77;;
44130;SDS011;29792;48.726;9.248;2023-03-01T07:48:54;19.38;;;16.05;;
44130;SDS011;29792;48.726;9.248;2023-03-01T07:51:19;18.08;;;14.80;;
44130;SDS011;29792;48.726;9.248;2023-03-01T07:53:48;18.83;;;13.82;;
44130;SDS011;29792;48.726;9.248;2023-03-01T07:56:14;19.35;;;14.70;;
44130;SDS011;29792;48.726;9.248;2023-03-01T07:58:42;19.05;;;13.88;;
44130;SDS011;29792;48.726;9.248;2023-03-01T08:01:10;18.65;;;13.85;;
44130;SDS011;29792;48.726;9.248;2023-03-01T08:03:39;21.15;;;14.93;;
44130;SDS011;29792;48.726;9.248;2023-03-01T08:06:06;21.35;;;14.88;;
44130;SDS011;29792;48.726;9.248;2023-03-01T08:08:33;21.15;;;15.90;;
44130;SDS011;29792;48.726;9.248;2023-03-01T08:10:59;19.02;;;15.30;;
44130;SDS011;29792;48.726;9.248;2023-03-01T08:13:26;20.67;;;14.93;;
44130;SDS011;29792;48.726;9.248;2023-03-01T08:15:51;19.27;;;15.35;;
44130;SDS011;29792;48.726;9.248;2023-03-01T08:18:17;21.45;;;15.13;;
44130;SDS011;29792;48.726;9.248;2023-03-01T08:20:43;18.75;;;14.07;;
44130;SDS011;29792;48.726;9.248;2023-03-01T08:23:09;22.50;;;16.23;;
44130;SDS011;29792;48.726;9.248;2023-03-01T08:25:34;23.45;;;15.70;;
44130;SDS011;29792;48.726;9.248;2023-03-01T08:27:59;19.35;;;13.93;;
44130;SDS011;29792;48.726;9.248;2023-03-01T08:30:25;22.20;;;16.25;;
44130;SDS011;29792;48.726;9.248;2023-03-01T08:32:50;23.33;;;16.48;;
44130;SDS011;29792;48.726;9.248;2023-03-01T08:35:16;45.75;;;29.58;;
44130;SDS011;29792;48.726;9.248;2023-03-01T08:37:41;23.23;;;16.48;;
44130;SDS011;29792;48.726;9.248;2023-03-01T08:40:07;23.13;;;16.50;;
44130;SDS011;29792;48.726;9.248;2023-03-01T08:42:34;21.25;;;15.43;;
44130;SDS011;29792;48.726;9.248;2023-03-01T08:45:03;20.02;;;15.18;;
44130;SDS011;29792;48.726;9.248;2023-03-01T08:47:29;21.65;;;14.88;;
44130;SDS011;29792;48.726;9.248;2023-03-01T08:49:54;25.67;;;16.40;;
44130;SDS011;29792;48.726;9.248;2023-03-01T08:52:19;23.98;;;14.80;;
44130;SDS011;29792;48.726;9.248;2023-03-01T08:54:47;20.83;;;14.52;;
44130;SDS011;29792;48.726;9.248;2023-03-01T08:57:12;20.02;;;14.48;;
44130;SDS011;29792;48.726;9.248;2023-03-01T08:59:38;23.35;;;15.70;;
44130;SDS011;29792;48.726;9.248;2023-03-01T09:02:04;23.73;;;16.25;;
44130;SDS011;29792;48.726;9.248;2023-03-01T09:04:30;24.42;;;16.27;;
44130;SDS011;29792;48.726;9.248;2023-03-01T09:06:55;21.23;;;15.13;;
44130;SDS011;29792;48.726;9.248;2023-03-01T09:09:20;27.15;;;17.42;;
44130;SDS011;29792;48.726;9.248;2023-03-01T09:11:45;22.70;;;15.98;;
44130;SDS011;29792;48.726;9.248;2023-03-01T09:14:11;22.38;;;15.57;;
44130;SDS011;29792;48.726;9.248;2023-03-01T09:16:38;20.10;;;14.98;;
44130;SDS011;29792;48.726;9.248;2023-03-01T09:19:03;23.98;;;15.05;;
44130;SDS011;29792;48.726;9.248;2023-03-01T09:21:31;21.90;;;16.58;;
44130;SDS011;29792;48.726;9.248;2023-03-01T09:23:56;20.42;;;14.88;;
44130;SDS011;29792;48.726;9.248;2023-03-01T09:26:22;25.63;;;15.15;;
44130;SDS011;29792;48.726;9.248;2023-03-01T09:28:49;20.88;;;14.57;;
44130;SDS011;29792;48.726;9.248;2023-03-01T09:31:16;20.67;;;15.68;;
44130;SDS011;29792;48.726;9.248;2023-03-01T09:33:45;20.48;;;14.93;;
44130;SDS011;29792;48.726;9.248;2023-03-01T09:36:13;23.67;;;14.90;;
44130;SDS011;29792;48.726;9.248;2023-03-01T09:38:40;20.27;;;14.13;;
44130;SDS011;29792;48.726;9.248;2023-03-01T09:46:43;17.45;;;14.48;;
44130;SDS011;29792;48.726;9.248;2023-03-01T09:49:29;19.70;;;14.70;;
44130;SDS011;29792;48.726;9.248;2023-03-01T09:52:02;20.55;;;14.52;;
44130;SDS011;29792;48.726;9.248;2023-03-01T09:54:37;19.45;;;13.38;;
44130;SDS011;29792;48.726;9.248;2023-03-01T10:02:27;21.40;;;15.50;;
44130;SDS011;29792;48.726;9.248;2023-03-01T10:07:45;16.45;;;13.85;;
44130;SDS011;29792;48.726;9.248;2023-03-01T10:10:34;18.27;;;14.63;;
44130;SDS011;29792;48.726;9.248;2023-03-01T10:13:15;17.17;;;13.25;;
44130;SDS011;29792;48.726;9.248;2023-03-01T10:15:47;21.50;;;15.98;;
44130;SDS011;29792;48.726;9.248;2023-03-01T10:18:27;18.85;;;14.27;;
44130;SDS011;29792;48.726;9.248;2023-03-01T10:21:00;18.75;;;15.23;;
44130;SDS011;29792;48.726;9.248;2023-03-01T10:23:29;20.25;;;15.35;;
44130;SDS011;29792;48.726;9.248;2023-03-01T10:26:19;19.30;;;13.93;;
44130;SDS011;29792;48.726;9.248;2023-03-01T10:31:43;18.95;;;14.63;;
44130;SDS011;29792;48.726;9.248;2023-03-01T10:34:30;21.27;;;13.80;;
44130;SDS011;29792;48.726;9.248;2023-03-01T10:36:59;16.80;;;12.98;;
44130;SDS011;29792;48.726;9.248;2023-03-01T10:40:01;23.95;;;14.45;;
44130;SDS011;29792;48.726;9.248;2023-03-01T10:42:34;14.10;;;10.85;;
44130;SDS011;29792;48.726;9.248;2023-03-01T10:53:23;16.30;;;14.50;;
44130;SDS011;29792;48.726;9.248;2023-03-01T10:58:31;15.13;;;13.52;;
44130;SDS011;29792;48.726;9.248;2023-03-01T11:01:00;18.83;;;13.45;;
44130;SDS011;29792;48.726;9.248;2023-03-01T11:03:34;17.23;;;12.50;;
44130;SDS011;29792;48.726;9.248;2023-03-01T11:06:03;16.15;;;12.57;;
44130;SDS011;29792;48.726;9.248;2023-03-01T11:11:03;14.55;;;12.32;;
44130;SDS011;29792;48.726;9.248;2023-03-01T11:13:54;16.73;;;13.20;;
44130;SDS011;29792;48.726;9.248;2023-03-01T11:16:25;16.67;;;12.73;;
44130;SDS011;29792;48.726;9.248;2023-03-01T11:21:47;13.50;;;10.65;;
44130;SDS011;29792;48.726;9.248;2023-03-01T11:24:18;14.95;;;11.70;;
44130;SDS011;29792;48.726;9.248;2023-03-01T11:26:45;14.95;;;11.73;;
44130;SDS011;29792;48.726;9.248;2023-03-01T11:29:18;17.88;;;11.85;;
44130;SDS011;29792;48.726;9.248;2023-03-01T11:31:52;13.18;;;11.23;;
44130;SDS011;29792;48.726;9.248;2023-03-01T11:34:23;13.95;;;11.82;;
44130;SDS011;29792;48.726;9.248;2023-03-01T11:37:09;17.10;;;12.90;;
44130;SDS011;29792;48.726;9.248;2023-03-01T11:39:46;15.15;;;12.45;;
44130;SDS011;29792;48.726;9.248;2023-03-01T11:42:17;15.13;;;13.48;;
44130;SDS011;29792;48.726;9.248;2023-03-01T11:44:47;13.93;;;11.77;;
44130;SDS011;29792;48.726;9.248;2023-03-01T11:47:19;14.77;;;13.18;;
44130;SDS011;29792;48.726;9.248;2023-03-01T12:01:24;16.20;;;12.35;;
44130;SDS011;29792;48.726;9.248;2023-03-01T12:10:19;14.57;;;12.65;;
44130;SDS011;29792;48.726;9.248;2023-03-01T12:15:38;16.92;;;13.25;;
44130;SDS011;29792;48.726;9.248;2023-03-01T12:18:46;15.98;;;12.05;;
44130;SDS011;29792;48.726;9.248;2023-03-01T12:24:28;18.45;;;12.77;;
44130;SDS011;29792;48.726;9.248;2023-03-01T12:29:56;16.38;;;11.52;;
44130;SDS011;29792;48.726;9.248;2023-03-01T12:38:25;15.52;;;12.52;;
44130;SDS011;29792;48.726;9.248;2023-03-01T12:41:19;15.02;;;12.15;;
44130;SDS011;29792;48.726;9.248;2023-03-01T12:49:40;16.55;;;11.32;;
44130;SDS011;29792;48.726;9.248;2023-03-01T12:52:19;16.13;;;12.68;;
44130;SDS011;29792;48.726;9.248;2023-03-01T12:55:02;16.52;;;11.60;;
44130;SDS011;29792;48.726;9.248;2023-03-01T12:57:53;17.30;;;11.15;;
44130;SDS011;29792;48.726;9.248;2023-03-01T13:06:32;15.65;;;12.63;;
44130;SDS011;29792;48.726;9.248;2023-03-01T13:09:14;15.07;;;11.57;;
44130;SDS011;29792;48.726;9.248;2023-03-01T13:12:01;13.18;;;10.75;;
44130;SDS011;29792;48.726;9.248;2023-03-01T13:14:36;15.32;;;11.82;;
44130;SDS011;29792;48.726;9.248;2023-03-01T13:17:28;15.50;;;11.82;;
44130;SDS011;29792;48.726;9.248;2023-03-01T13:19:58;16.20;;;12.20;;
44130;SDS011;29792;48.726;9.248;2023-03-01T13:22:25;14.32;;;10.52;;
44130;SDS011;29792;48.726;9.248;2023-03-01T13:25:00;15.43;;;12.02;;
44130;SDS011;29792;48.726;9.248;2023-03-01T13:27:28;14.52;;;10.90;;
44130;SDS011;29792;48.726;9.248;2023-03-01T13:29:55;13.00;;;10.20;;
44130;SDS011;29792;48.726;9.248;2023-03-01T13:34:59;16.55;;;12.38;;
44130;SDS011;29792;48.726;9.248;2023-03-01T13:37:44;13.73;;;11.20;;
44130;SDS011;29792;48.726;9.248;2023-03-01T13:42:44;15.75;;;11.35;;
44130;SDS011;29792;48.726;9.248;2023-03-01T13:47:56;12.70;;;10.98;;
44130;SDS011;29792;48.726;9.248;2023-03-01T13:50:25;11.77;;;10.20;;
44130;SDS011;29792;48.726;9.248;2023-03-01T13:53:00;11.38;;;9.63;;
44130;SDS011;29792;48.726;9.248;2023-03-01T13:55:38;11.23;;;9.80;;
44130;SDS011;29792;48.726;9.248;2023-03-01T13:58:18;13.60;;;10.88;;
44130;SDS011;29792;48.726;9.248;2023-03-01T14:00:44;10.73;;;8.50;;
44130;SDS011;29792;48.726;9.248;2023-03-01T14:03:11;15.90;;;10.93;;
44130;SDS011;29792;48.726;9.248;2023-03-01T14:05:39;14.55;;;10.10;;
44130;SDS011;29792;48.726;9.248;2023-03-01T14:08:18;14.38;;;10.68;;
44130;SDS011;29792;48.726;9.248;2023-03-01T14:19:19;13.18;;;11.25;;
44130;SDS011;29792;48.726;9.248;2023-03-01T14:21:46;14.52;;;12.75;;
44130;SDS011;29792;48.726;9.248;2023-03-01T14:24:20;19.83;;;13.82;;
44130;SDS011;29792;48.726;9.248;2023-03-01T14:26:47;14.02;;;11.18;;
44130;SDS011;29792;48.726;9.248;2023-03-01T14:29:26;15.02;;;12.02;;
44130;SDS011;29792;48.726;9.248;2023-03-01T14:34:45;17.27;;;12.65;;
44130;SDS011;29792;48.726;9.248;2023-03-01T14:37:19;14.52;;;11.90;;
44130;SDS011;29792;48.726;9.248;2023-03-01T14:39:50;16.00;;;12.15;;
44130;SDS011;29792;48.726;9.248;2023-03-01T14:42:16;15.63;;;12.07;;
44130;SDS011;29792;48.726;9.248;2023-03-01T14:44:45;14.57;;;11.95;;
44130;SDS011;29792;48.726;9.248;2023-03-01T14:47:20;15.88;;;11.95;;
44130;SDS011;29792;48.726;9.248;2023-03-01T14:50:43;14.02;;;11.57;;
44130;SDS011;29792;48.726;9.248;2023-03-01T14:52:47;16.85;;;12.73;;
44130;SDS011;29792;48.726;9.248;2023-03-01T14:55:16;17.42;;;13.43;;
44130;SDS011;29792;48.726;9.248;2023-03-01T14:57:45;18.83;;;13.32;;
44130;SDS011;29792;48.726;9.248;2023-03-01T15:00:16;15.77;;;12.18;;
44130;SDS011;29792;48.726;9.248;2023-03-01T15:02:46;15.98;;;12.20;;
44130;SDS011;29792;48.726;9.248;2023-03-01T15:05:13;16.98;;;13.27;;
44130;SDS011;29792;48.726;9.248;2023-03-01T15:07:41;15.30;;;11.73;;
44130;SDS011;29792;48.726;9.248;2023-03-01T15:10:20;12.25;;;10.70;;
44130;SDS011;29792;48.726;9.248;2023-03-01T15:12:48;14.95;;;11.27;;
44130;SDS011;29792;48.726;9.248;2023-03-01T15:18:04;14.32;;;11.13;;
44130;SDS011;29792;48.726;9.248;2023-03-01T15:20:38;14.82;;;11.30;;
44130;SDS011;29792;48.726;9.248;2023-03-01T15:23:03;14.73;;;10.85;;
44130;SDS011;29792;48.726;9.248;2023-03-01T15:25:30;13.73;;;10.40;;
44130;SDS011;29792;48.726;9.248;2023-03-01T15:27:57;12.57;;;10.75;;
44130;SDS011;29792;48.726;9.248;2023-03-01T15:30:30;14.70;;;9.55;;
44130;SDS011;29792;48.726;9.248;2023-03-01T15:35:57;16.80;;;12.75;;
44130;SDS011;29792;48.726;9.248;2023-03-01T15:38:37;12.48;;;10.80;;
44130;SDS011;29792;48.726;9.248;2023-03-01T15:41:45;12.90;;;10.90;;
44130;SDS011;29792;48.726;9.248;2023-03-01T15:44:31;14.57;;;10.77;;
44130;SDS011;29792;48.726;9.248;2023-03-01T15:46:59;11.55;;;10.35;;
44130;SDS011;29792;48.726;9.248;2023-03-01T15:49:38;13.13;;;10.88;;
44130;SDS011;29792;48.726;9.248;2023-03-01T15:52:05;15.32;;;11.18;;
44130;SDS011;29792;48.726;9.248;2023-03-01T15:54:38;16.15;;;11.65;;
44130;SDS011;29792;48.726;9.248;2023-03-01T15:57:05;17.90;;;12.80;;
44130;SDS011;29792;48.726;9.248;2023-03-01T15:59:33;13.35;;;11.25;;
44130;SDS011;29792;48.726;9.248;2023-03-01T16:01:59;14.18;;;11.82;;
44130;SDS011;29792;48.726;9.248;2023-03-01T16:04:24;15.10;;;12.00;;
44130;SDS011;29792;48.726;9.248;2023-03-01T16:06:50;16.27;;;12.88;;
44130;SDS011;29792;48.726;9.248;2023-03-01T16:09:19;19.08;;;14.85;;
44130;SDS011;29792;48.726;9.248;2023-03-01T16:11:46;15.60;;;12.98;;
44130;SDS011;29792;48.726;9.248;2023-03-01T16:14:11;16.00;;;12.90;;
44130;SDS011;29792;48.726;9.248;2023-03-01T16:16:37;17.05;;;12.88;;
44130;SDS011;29792;48.726;9.248;2023-03-01T16:19:02;17.17;;;13.27;;
44130;SDS011;29792;48.726;9.248;2023-03-01T16:21:27;19.77;;;14.73;;
44130;SDS011;29792;48.726;9.248;2023-03-01T16:23:52;16.17;;;12.35;;
44130;SDS011;29792;48.726;9.248;2023-03-01T16:26:18;20.55;;;14.23;;